sensor_id;sensor_type;location;lat;lon;timestamp;temperature;humidity
37560;DHT22;23398;50.928;7.084;2022-11-20T00:00:47;7.70;72.70
37560;DHT22;23398;50.928;7.084;2022-11-20T00:03:13;7.80;72.70
37560;DHT22;23398;50.928;7.084;2022-11-20T00:05:38;7.70;72.50
37560;DHT22;23398;50.928;7.084;2022-11-20T00:08:04;7.70;72.40
37560;DHT22;23398;50.928;7.084;2022-11-20T00:10:30;7.70;72.30
37560;DHT22;23398;50.928;7.084;2022-11-20T00:12:57;7.70;72.20
37560;DHT22;23398;50.928;7.084;2022-11-20T00:15:22;7.70;72.10
37560;DHT22;23398;50.928;7.084;2022-11-20T00:17:48;7.70;72.10
37560;DHT22;23398;50.928;7.084;2022-11-20T00:20:13;7.60;72.00
37560;DHT22;23398;50.928;7.084;2022-11-20T00:22:39;7.70;72.20
37560;DHT22;23398;50.928;7.084;2022-11-20T00:25:05;7.60;72.00
37560;DHT22;23398;50.928;7.084;2022-11-20T00:27:31;7.70;72.20
37560;DHT22;23398;50.928;7.084;2022-11-20T00:29:56;7.60;72.10
37560;DHT22;23398;50.928;7.084;2022-11-20T00:32:22;7.60;72.00
37560;DHT22;23398;50.928;7.084;2022-11-20T00:34:47;7.60;71.90
37560;DHT22;23398;50.928;7.084;2022-11-20T00:37:14;7.60;72.00
37560;DHT22;23398;50.928;7.084;2022-11-20T00:39:40;7.60;72.10
37560;DHT22;23398;50.928;7.084;2022-11-20T00:42:05;7.60;72.30
37560;DHT22;23398;50.928;7.084;2022-11-20T00:44:31;7.70;72.20
37560;DHT22;23398;50.928;7.084;2022-11-20T00:46:56;7.70;71.90
37560;DHT22;23398;50.928;7.084;2022-11-20T00:49:22;7.70;71.70
37560;DHT22;23398;50.928;7.084;2022-11-20T00:51:47;7.70;71.60
37560;DHT22;23398;50.928;7.084;2022-11-20T00:54:13;7.70;71.60
37560;DHT22;23398;50.928;7.084;2022-11-20T00:56:38;7.70;71.50
37560;DHT22;23398;50.928;7.084;2022-11-20T00:59:05;7.70;72.40
37560;DHT22;23398;50.928;7.084;2022-11-20T01:01:30;7.70;71.90
37560;DHT22;23398;50.928;7.084;2022-11-20T01:03:58;7.70;72.10
37560;DHT22;23398;50.928;7.084;2022-11-20T01:08:53;7.70;72.90
37560;DHT22;23398;50.928;7.084;2022-11-20T01:11:22;7.70;72.80
37560;DHT22;23398;50.928;7.084;2022-11-20T01:13:49;7.70;72.80
37560;DHT22;23398;50.928;7.084;2022-11-20T01:16:20;7.70;72.70
37560;DHT22;23398;50.928;7.084;2022-11-20T01:18:49;7.70;72.50
37560;DHT22;23398;50.928;7.084;2022-11-20T01:21:18;7.70;72.50
37560;DHT22;23398;50.928;7.084;2022-11-20T01:23:44;7.70;72.60
37560;DHT22;23398;50.928;7.084;2022-11-20T01:26:14;7.70;72.40
37560;DHT22;23398;50.928;7.084;2022-11-20T01:28:40;7.70;72.10
37560;DHT22;23398;50.928;7.084;2022-11-20T01:31:27;7.70;72.20
37560;DHT22;23398;50.928;7.084;2022-11-20T01:33:55;7.80;71.90
37560;DHT22;23398;50.928;7.084;2022-11-20T01:36:23;7.70;72.10
37560;DHT22;23398;50.928;7.084;2022-11-20T01:38:53;7.80;72.10
37560;DHT22;23398;50.928;7.084;2022-11-20T01:41:20;7.80;71.60
37560;DHT22;23398;50.928;7.084;2022-11-20T01:44:04;7.80;71.40
37560;DHT22;23398;50.928;7.084;2022-11-20T01:46:32;7.80;71.20
37560;DHT22;23398;50.928;7.084;2022-11-20T01:49:11;7.80;70.80
37560;DHT22;23398;50.928;7.084;2022-11-20T01:51:47;7.80;70.50
37560;DHT22;23398;50.928;7.084;2022-11-20T01:54:19;7.80;70.30
37560;DHT22;23398;50.928;7.084;2022-11-20T01:56:48;7.80;70.20
37560;DHT22;23398;50.928;7.084;2022-11-20T01:59:18;7.80;70.10
37560;DHT22;23398;50.928;7.084;2022-11-20T02:01:44;7.80;70.10
37560;DHT22;23398;50.928;7.084;2022-11-20T02:04:10;7.80;70.00
37560;DHT22;23398;50.928;7.084;2022-11-20T02:06:59;7.80;69.90
37560;DHT22;23398;50.928;7.084;2022-11-20T02:09:26;7.80;69.70
37560;DHT22;23398;50.928;7.084;2022-11-20T02:11:52;7.80;70.10
37560;DHT22;23398;50.928;7.084;2022-11-20T02:14:18;7.80;70.00
37560;DHT22;23398;50.928;7.084;2022-11-20T02:16:46;7.70;69.90
37560;DHT22;23398;50.928;7.084;2022-11-20T02:21:53;7.70;70.10
37560;DHT22;23398;50.928;7.084;2022-11-20T02:24:22;7.70;70.20
37560;DHT22;23398;50.928;7.084;2022-11-20T02:27:09;7.70;70.40
37560;DHT22;23398;50.928;7.084;2022-11-20T02:32:24;7.70;70.60
37560;DHT22;23398;50.928;7.084;2022-11-20T02:34:50;7.70;70.70
37560;DHT22;23398;50.928;7.084;2022-11-20T02:37:16;7.70;70.90
37560;DHT22;23398;50.928;7.084;2022-11-20T02:39:43;7.70;70.70
37560;DHT22;23398;50.928;7.084;2022-11-20T02:42:09;7.60;70.50
37560;DHT22;23398;50.928;7.084;2022-11-20T02:44:35;7.60;70.70
37560;DHT22;23398;50.928;7.084;2022-11-20T02:47:00;7.60;70.60
37560;DHT22;23398;50.928;7.084;2022-11-20T02:49:26;7.60;70.60
37560;DHT22;23398;50.928;7.084;2022-11-20T02:51:52;7.60;70.70
37560;DHT22;23398;50.928;7.084;2022-11-20T02:54:17;7.60;70.70
37560;DHT22;23398;50.928;7.084;2022-11-20T02:56:43;7.60;70.60
37560;DHT22;23398;50.928;7.084;2022-11-20T02:59:09;7.60;70.40
37560;DHT22;23398;50.928;7.084;2022-11-20T03:01:34;7.60;70.40
37560;DHT22;23398;50.928;7.084;2022-11-20T03:04:00;7.60;70.50
37560;DHT22;23398;50.928;7.084;2022-11-20T03:06:25;7.60;70.40
37560;DHT22;23398;50.928;7.084;2022-11-20T03:08:51;7.60;70.40
37560;DHT22;23398;50.928;7.084;2022-11-20T03:11:17;7.50;70.50
37560;DHT22;23398;50.928;7.084;2022-11-20T03:13:43;7.60;70.60
37560;DHT22;23398;50.928;7.084;2022-11-20T03:16:11;7.50;70.40
37560;DHT22;23398;50.928;7.084;2022-11-20T03:18:37;7.50;70.40
37560;DHT22;23398;50.928;7.084;2022-11-20T03:21:03;7.50;70.60
37560;DHT22;23398;50.928;7.084;2022-11-20T03:23:30;7.60;70.70
37560;DHT22;23398;50.928;7.084;2022-11-20T03:26:10;7.50;70.50
37560;DHT22;23398;50.928;7.084;2022-11-20T03:28:36;7.50;70.50
37560;DHT22;23398;50.928;7.084;2022-11-20T03:31:07;7.50;70.70
37560;DHT22;23398;50.928;7.084;2022-11-20T03:33:33;7.60;70.70
37560;DHT22;23398;50.928;7.084;2022-11-20T03:36:04;7.50;70.90
37560;DHT22;23398;50.928;7.084;2022-11-20T03:38:30;7.50;71.00
37560;DHT22;23398;50.928;7.084;2022-11-20T03:41:05;7.50;71.10
37560;DHT22;23398;50.928;7.084;2022-11-20T03:43:32;7.50;71.20
37560;DHT22;23398;50.928;7.084;2022-11-20T03:45:58;7.50;71.30
37560;DHT22;23398;50.928;7.084;2022-11-20T03:48:23;7.50;71.10
37560;DHT22;23398;50.928;7.084;2022-11-20T03:50:49;7.50;71.00
37560;DHT22;23398;50.928;7.084;2022-11-20T03:53:15;7.50;71.10
37560;DHT22;23398;50.928;7.084;2022-11-20T03:55:41;7.50;71.10
37560;DHT22;23398;50.928;7.084;2022-11-20T03:58:07;7.50;71.10
37560;DHT22;23398;50.928;7.084;2022-11-20T04:00:33;7.50;71.10
37560;DHT22;23398;50.928;7.084;2022-11-20T04:02:59;7.50;71.20
37560;DHT22;23398;50.928;7.084;2022-11-20T04:05:25;7.50;71.20
37560;DHT22;23398;50.928;7.084;2022-11-20T04:07:51;7.50;71.20
37560;DHT22;23398;50.928;7.084;2022-11-20T04:10:16;7.50;71.20
37560;DHT22;23398;50.928;7.084;2022-11-20T04:12:42;7.50;71.10
37560;DHT22;23398;50.928;7.084;2022-11-20T04:15:08;7.50;71.00
37560;DHT22;23398;50.928;7.084;2022-11-20T04:17:34;7.50;71.00
37560;DHT22;23398;50.928;7.084;2022-11-20T04:19:59;7.50;71.20
37560;DHT22;23398;50.928;7.084;2022-11-20T04:22:25;7.50;71.30
37560;DHT22;23398;50.928;7.084;2022-11-20T04:24:50;7.50;71.40
37560;DHT22;23398;50.928;7.084;2022-11-20T04:27:16;7.50;71.40
37560;DHT22;23398;50.928;7.084;2022-11-20T04:29:41;7.50;71.40
37560;DHT22;23398;50.928;7.084;2022-11-20T04:32:07;7.50;71.60
37560;DHT22;23398;50.928;7.084;2022-11-20T04:34:33;7.50;71.70
37560;DHT22;23398;50.928;7.084;2022-11-20T04:36:59;7.50;71.60
37560;DHT22;23398;50.928;7.084;2022-11-20T04:39:24;7.50;71.40
37560;DHT22;23398;50.928;7.084;2022-11-20T04:41:50;7.50;71.00
37560;DHT22;23398;50.928;7.084;2022-11-20T04:44:35;7.40;70.70
37560;DHT22;23398;50.928;7.084;2022-11-20T04:47:01;7.40;70.70
37560;DHT22;23398;50.928;7.084;2022-11-20T04:49:26;7.30;70.70
37560;DHT22;23398;50.928;7.084;2022-11-20T04:51:55;7.20;70.90
37560;DHT22;23398;50.928;7.084;2022-11-20T04:54:20;7.20;71.30
37560;DHT22;23398;50.928;7.084;2022-11-20T04:56:50;7.10;71.60
37560;DHT22;23398;50.928;7.084;2022-11-20T04:59:15;7.00;71.90
37560;DHT22;23398;50.928;7.084;2022-11-20T05:01:41;7.00;72.20
37560;DHT22;23398;50.928;7.084;2022-11-20T05:04:06;7.00;72.40
37560;DHT22;23398;50.928;7.084;2022-11-20T05:06:32;6.90;72.50
37560;DHT22;23398;50.928;7.084;2022-11-20T05:08:58;6.90;72.90
37560;DHT22;23398;50.928;7.084;2022-11-20T05:11:24;6.90;73.30
37560;DHT22;23398;50.928;7.084;2022-11-20T05:13:51;6.90;73.70
37560;DHT22;23398;50.928;7.084;2022-11-20T05:16:19;6.80;73.90
37560;DHT22;23398;50.928;7.084;2022-11-20T05:18:45;6.80;74.20
37560;DHT22;23398;50.928;7.084;2022-11-20T05:21:12;6.80;74.60
37560;DHT22;23398;50.928;7.084;2022-11-20T05:23:38;6.80;75.00
37560;DHT22;23398;50.928;7.084;2022-11-20T05:26:06;6.90;75.20
37560;DHT22;23398;50.928;7.084;2022-11-20T05:28:32;6.80;75.20
37560;DHT22;23398;50.928;7.084;2022-11-20T05:31:12;6.90;75.50
37560;DHT22;23398;50.928;7.084;2022-11-20T05:33:42;7.00;75.80
37560;DHT22;23398;50.928;7.084;2022-11-20T05:36:09;7.00;75.90
37560;DHT22;23398;50.928;7.084;2022-11-20T05:38:35;7.00;76.00
37560;DHT22;23398;50.928;7.084;2022-11-20T05:41:05;7.00;76.20
37560;DHT22;23398;50.928;7.084;2022-11-20T05:43:35;7.10;76.30
37560;DHT22;23398;50.928;7.084;2022-11-20T05:46:01;7.10;76.20
37560;DHT22;23398;50.928;7.084;2022-11-20T05:48:27;7.20;76.10
37560;DHT22;23398;50.928;7.084;2022-11-20T05:50:53;7.20;76.00
37560;DHT22;23398;50.928;7.084;2022-11-20T05:53:18;7.20;75.90
37560;DHT22;23398;50.928;7.084;2022-11-20T05:55:44;7.20;75.90
37560;DHT22;23398;50.928;7.084;2022-11-20T05:58:09;7.20;75.90
37560;DHT22;23398;50.928;7.084;2022-11-20T06:00:35;7.30;75.90
37560;DHT22;23398;50.928;7.084;2022-11-20T06:03:02;7.30;75.80
37560;DHT22;23398;50.928;7.084;2022-11-20T06:05:27;7.30;75.60
37560;DHT22;23398;50.928;7.084;2022-11-20T06:07:53;7.40;75.60
37560;DHT22;23398;50.928;7.084;2022-11-20T06:10:18;7.40;75.50
37560;DHT22;23398;50.928;7.084;2022-11-20T06:12:44;7.40;75.50
37560;DHT22;23398;50.928;7.084;2022-11-20T06:15:10;7.40;75.60
37560;DHT22;23398;50.928;7.084;2022-11-20T06:17:38;7.50;76.50
37560;DHT22;23398;50.928;7.084;2022-11-20T06:20:04;7.50;75.70
37560;DHT22;23398;50.928;7.084;2022-11-20T06:22:30;7.50;75.50
37560;DHT22;23398;50.928;7.084;2022-11-20T06:24:55;7.50;75.60
37560;DHT22;23398;50.928;7.084;2022-11-20T06:27:21;7.60;75.80
37560;DHT22;23398;50.928;7.084;2022-11-20T06:29:46;7.60;75.80
37560;DHT22;23398;50.928;7.084;2022-11-20T06:32:12;7.60;76.60
37560;DHT22;23398;50.928;7.084;2022-11-20T06:34:37;7.60;75.80
37560;DHT22;23398;50.928;7.084;2022-11-20T06:37:03;7.60;75.70
37560;DHT22;23398;50.928;7.084;2022-11-20T06:39:28;7.60;75.50
37560;DHT22;23398;50.928;7.084;2022-11-20T06:41:54;7.60;75.10
37560;DHT22;23398;50.928;7.084;2022-11-20T06:44:19;7.60;75.00
37560;DHT22;23398;50.928;7.084;2022-11-20T06:46:45;7.60;74.90
37560;DHT22;23398;50.928;7.084;2022-11-20T06:49:11;7.60;74.80
37560;DHT22;23398;50.928;7.084;2022-11-20T06:51:36;7.60;74.70
37560;DHT22;23398;50.928;7.084;2022-11-20T06:54:02;7.60;74.60
37560;DHT22;23398;50.928;7.084;2022-11-20T06:56:27;7.60;74.50
37560;DHT22;23398;50.928;7.084;2022-11-20T06:58:54;7.60;74.30
37560;DHT22;23398;50.928;7.084;2022-11-20T07:01:19;7.60;74.30
37560;DHT22;23398;50.928;7.084;2022-11-20T07:03:45;7.60;74.50
37560;DHT22;23398;50.928;7.084;2022-11-20T07:06:10;7.60;74.60
37560;DHT22;23398;50.928;7.084;2022-11-20T07:08:36;7.60;74.70
37560;DHT22;23398;50.928;7.084;2022-11-20T07:11:06;7.50;74.70
37560;DHT22;23398;50.928;7.084;2022-11-20T07:13:33;7.60;74.90
37560;DHT22;23398;50.928;7.084;2022-11-20T07:16:00;7.60;74.90
37560;DHT22;23398;50.928;7.084;2022-11-20T07:18:26;7.60;74.60
37560;DHT22;23398;50.928;7.084;2022-11-20T07:20:52;7.60;74.60
37560;DHT22;23398;50.928;7.084;2022-11-20T07:23:17;7.60;74.70
37560;DHT22;23398;50.928;7.084;2022-11-20T07:25:43;7.60;74.90
37560;DHT22;23398;50.928;7.084;2022-11-20T07:28:08;7.60;75.10
37560;DHT22;23398;50.928;7.084;2022-11-20T07:30:35;7.60;75.20
37560;DHT22;23398;50.928;7.084;2022-11-20T07:33:01;7.60;75.30
37560;DHT22;23398;50.928;7.084;2022-11-20T07:35:26;7.60;75.50
37560;DHT22;23398;50.928;7.084;2022-11-20T07:37:52;7.70;75.60
37560;DHT22;23398;50.928;7.084;2022-11-20T07:40:18;7.70;75.60
37560;DHT22;23398;50.928;7.084;2022-11-20T07:42:53;7.70;75.60
37560;DHT22;23398;50.928;7.084;2022-11-20T07:45:21;7.70;75.60
37560;DHT22;23398;50.928;7.084;2022-11-20T07:47:47;7.80;75.70
37560;DHT22;23398;50.928;7.084;2022-11-20T07:50:13;7.80;75.90
37560;DHT22;23398;50.928;7.084;2022-11-20T07:52:39;7.90;75.90
37560;DHT22;23398;50.928;7.084;2022-11-20T07:55:05;7.90;76.50
37560;DHT22;23398;50.928;7.084;2022-11-20T07:57:31;7.90;75.50
37560;DHT22;23398;50.928;7.084;2022-11-20T07:59:56;8.00;75.30
37560;DHT22;23398;50.928;7.084;2022-11-20T08:02:22;8.00;75.10
37560;DHT22;23398;50.928;7.084;2022-11-20T08:04:47;8.00;75.00
37560;DHT22;23398;50.928;7.084;2022-11-20T08:07:13;8.10;75.10
37560;DHT22;23398;50.928;7.084;2022-11-20T08:09:38;8.10;75.20
37560;DHT22;23398;50.928;7.084;2022-11-20T08:12:04;8.20;75.30
37560;DHT22;23398;50.928;7.084;2022-11-20T08:14:48;8.20;75.20
37560;DHT22;23398;50.928;7.084;2022-11-20T08:17:14;8.30;75.20
37560;DHT22;23398;50.928;7.084;2022-11-20T08:19:39;8.40;75.20
37560;DHT22;23398;50.928;7.084;2022-11-20T08:22:05;8.40;75.00
37560;DHT22;23398;50.928;7.084;2022-11-20T08:24:30;8.50;74.70
37560;DHT22;23398;50.928;7.084;2022-11-20T08:26:59;8.50;74.60
37560;DHT22;23398;50.928;7.084;2022-11-20T08:29:28;8.60;74.30
37560;DHT22;23398;50.928;7.084;2022-11-20T08:31:53;8.70;74.10
37560;DHT22;23398;50.928;7.084;2022-11-20T08:34:19;8.70;73.90
37560;DHT22;23398;50.928;7.084;2022-11-20T08:36:44;8.80;73.90
37560;DHT22;23398;50.928;7.084;2022-11-20T08:39:13;8.80;73.90
37560;DHT22;23398;50.928;7.084;2022-11-20T08:41:39;8.90;73.60
37560;DHT22;23398;50.928;7.084;2022-11-20T08:44:06;8.90;73.40
37560;DHT22;23398;50.928;7.084;2022-11-20T08:46:35;9.00;73.10
37560;DHT22;23398;50.928;7.084;2022-11-20T08:49:03;9.10;72.80
37560;DHT22;23398;50.928;7.084;2022-11-20T08:51:29;9.10;72.60
37560;DHT22;23398;50.928;7.084;2022-11-20T08:53:55;9.70;73.10
37560;DHT22;23398;50.928;7.084;2022-11-20T08:56:20;9.30;72.40
37560;DHT22;23398;50.928;7.084;2022-11-20T08:58:46;9.30;72.10
37560;DHT22;23398;50.928;7.084;2022-11-20T09:01:11;9.30;72.00
37560;DHT22;23398;50.928;7.084;2022-11-20T09:03:37;9.40;71.90
37560;DHT22;23398;50.928;7.084;2022-11-20T09:06:05;9.50;71.60
37560;DHT22;23398;50.928;7.084;2022-11-20T09:08:32;9.50;71.10
37560;DHT22;23398;50.928;7.084;2022-11-20T09:10:58;9.60;71.10
37560;DHT22;23398;50.928;7.084;2022-11-20T09:13:25;9.60;70.90
37560;DHT22;23398;50.928;7.084;2022-11-20T09:15:55;9.70;70.90
37560;DHT22;23398;50.928;7.084;2022-11-20T09:18:22;9.70;70.80
37560;DHT22;23398;50.928;7.084;2022-11-20T09:20:48;9.80;71.10
37560;DHT22;23398;50.928;7.084;2022-11-20T09:23:14;9.80;70.90
37560;DHT22;23398;50.928;7.084;2022-11-20T09:25:40;9.90;70.60
37560;DHT22;23398;50.928;7.084;2022-11-20T09:28:05;9.90;70.00
37560;DHT22;23398;50.928;7.084;2022-11-20T09:30:31;9.90;69.60
37560;DHT22;23398;50.928;7.084;2022-11-20T09:32:57;9.90;69.70
37560;DHT22;23398;50.928;7.084;2022-11-20T09:35:22;9.90;69.70
37560;DHT22;23398;50.928;7.084;2022-11-20T09:37:48;9.90;69.60
37560;DHT22;23398;50.928;7.084;2022-11-20T09:40:26;10.00;69.00
37560;DHT22;23398;50.928;7.084;2022-11-20T09:43:07;10.00;69.00
37560;DHT22;23398;50.928;7.084;2022-11-20T09:48:48;10.30;69.30
37560;DHT22;23398;50.928;7.084;2022-11-20T09:51:52;10.50;69.20
37560;DHT22;23398;50.928;7.084;2022-11-20T09:54:21;10.70;68.50
37560;DHT22;23398;50.928;7.084;2022-11-20T09:56:55;10.80;68.80
37560;DHT22;23398;50.928;7.084;2022-11-20T09:59:32;10.90;68.10
37560;DHT22;23398;50.928;7.084;2022-11-20T10:01:59;11.10;68.00
37560;DHT22;23398;50.928;7.084;2022-11-20T10:04:26;11.20;68.10
37560;DHT22;23398;50.928;7.084;2022-11-20T10:09:40;11.40;66.70
37560;DHT22;23398;50.928;7.084;2022-11-20T10:15:25;11.50;66.20
37560;DHT22;23398;50.928;7.084;2022-11-20T10:28:56;11.50;65.00
37560;DHT22;23398;50.928;7.084;2022-11-20T10:31:48;11.50;65.00
37560;DHT22;23398;50.928;7.084;2022-11-20T10:34:34;11.50;64.60
37560;DHT22;23398;50.928;7.084;2022-11-20T10:42:17;11.30;64.10
37560;DHT22;23398;50.928;7.084;2022-11-20T10:44:52;11.30;64.10
37560;DHT22;23398;50.928;7.084;2022-11-20T10:47:28;11.20;64.20
37560;DHT22;23398;50.928;7.084;2022-11-20T10:49:58;11.30;64.70
37560;DHT22;23398;50.928;7.084;2022-11-20T10:53:08;11.10;64.80
37560;DHT22;23398;50.928;7.084;2022-11-20T10:55:40;11.10;64.70
37560;DHT22;23398;50.928;7.084;2022-11-20T11:01:15;11.20;65.10
37560;DHT22;23398;50.928;7.084;2022-11-20T11:03:41;11.20;64.80
37560;DHT22;23398;50.928;7.084;2022-11-20T11:08:53;11.20;65.00
37560;DHT22;23398;50.928;7.084;2022-11-20T11:11:32;11.20;65.00
37560;DHT22;23398;50.928;7.084;2022-11-20T11:14:06;11.20;64.70
37560;DHT22;23398;50.928;7.084;2022-11-20T11:16:32;11.20;64.60
37560;DHT22;23398;50.928;7.084;2022-11-20T11:19:12;11.20;64.80
37560;DHT22;23398;50.928;7.084;2022-11-20T11:21:53;11.20;64.50
37560;DHT22;23398;50.928;7.084;2022-11-20T11:24:27;11.20;64.60
37560;DHT22;23398;50.928;7.084;2022-11-20T11:27:10;11.10;64.40
37560;DHT22;23398;50.928;7.084;2022-11-20T11:29:36;11.10;64.50
37560;DHT22;23398;50.928;7.084;2022-11-20T11:32:18;11.00;64.90
37560;DHT22;23398;50.928;7.084;2022-11-20T11:34:44;11.00;64.80
37560;DHT22;23398;50.928;7.084;2022-11-20T11:37:20;11.00;65.20
37560;DHT22;23398;50.928;7.084;2022-11-20T11:39:47;10.90;64.80
37560;DHT22;23398;50.928;7.084;2022-11-20T11:42:17;10.90;65.10
37560;DHT22;23398;50.928;7.084;2022-11-20T11:44:46;11.00;65.20
37560;DHT22;23398;50.928;7.084;2022-11-20T11:47:33;11.00;65.30
37560;DHT22;23398;50.928;7.084;2022-11-20T11:50:28;10.90;65.20
37560;DHT22;23398;50.928;7.084;2022-11-20T11:53:11;10.90;65.20
37560;DHT22;23398;50.928;7.084;2022-11-20T11:55:42;10.90;65.10
37560;DHT22;23398;50.928;7.084;2022-11-20T12:01:07;11.00;65.30
37560;DHT22;23398;50.928;7.084;2022-11-20T12:03:38;11.00;65.20
37560;DHT22;23398;50.928;7.084;2022-11-20T12:06:12;10.90;65.00
37560;DHT22;23398;50.928;7.084;2022-11-20T12:08:57;10.90;65.00
37560;DHT22;23398;50.928;7.084;2022-11-20T12:11:43;10.90;65.10
37560;DHT22;23398;50.928;7.084;2022-11-20T12:16:42;10.90;65.40
37560;DHT22;23398;50.928;7.084;2022-11-20T12:19:11;10.90;65.60
37560;DHT22;23398;50.928;7.084;2022-11-20T12:30:14;10.90;65.20
37560;DHT22;23398;50.928;7.084;2022-11-20T12:32:44;10.90;65.50
37560;DHT22;23398;50.928;7.084;2022-11-20T12:40:49;10.90;65.50
37560;DHT22;23398;50.928;7.084;2022-11-20T12:43:19;10.90;65.60
37560;DHT22;23398;50.928;7.084;2022-11-20T12:46:41;10.80;65.70
37560;DHT22;23398;50.928;7.084;2022-11-20T12:55:00;10.80;66.20
37560;DHT22;23398;50.928;7.084;2022-11-20T12:57:52;10.90;66.00
37560;DHT22;23398;50.928;7.084;2022-11-20T13:00:21;10.90;65.70
37560;DHT22;23398;50.928;7.084;2022-11-20T13:03:13;10.90;65.70
37560;DHT22;23398;50.928;7.084;2022-11-20T13:06:05;10.90;65.60
37560;DHT22;23398;50.928;7.084;2022-11-20T13:08:36;10.90;65.80
37560;DHT22;23398;50.928;7.084;2022-11-20T13:11:32;10.90;66.10
37560;DHT22;23398;50.928;7.084;2022-11-20T13:19:34;11.10;66.30
37560;DHT22;23398;50.928;7.084;2022-11-20T13:22:00;11.10;66.30
37560;DHT22;23398;50.928;7.084;2022-11-20T13:24:28;11.20;66.30
37560;DHT22;23398;50.928;7.084;2022-11-20T13:29:36;11.30;65.90
37560;DHT22;23398;50.928;7.084;2022-11-20T13:32:05;11.30;65.90
37560;DHT22;23398;50.928;7.084;2022-11-20T13:34:32;11.40;66.00
37560;DHT22;23398;50.928;7.084;2022-11-20T13:36:59;11.40;65.90
37560;DHT22;23398;50.928;7.084;2022-11-20T13:39:28;11.50;65.80
37560;DHT22;23398;50.928;7.084;2022-11-20T13:41:58;11.50;65.80
37560;DHT22;23398;50.928;7.084;2022-11-20T13:44:35;11.50;65.80
37560;DHT22;23398;50.928;7.084;2022-11-20T13:47:03;11.50;65.60
37560;DHT22;23398;50.928;7.084;2022-11-20T13:49:37;11.60;65.70
37560;DHT22;23398;50.928;7.084;2022-11-20T13:58:01;11.60;65.30
37560;DHT22;23398;50.928;7.084;2022-11-20T14:00:28;11.60;65.50
37560;DHT22;23398;50.928;7.084;2022-11-20T14:05:25;11.60;65.50
37560;DHT22;23398;50.928;7.084;2022-11-20T14:07:51;11.50;65.50
37560;DHT22;23398;50.928;7.084;2022-11-20T14:10:28;11.50;65.60
37560;DHT22;23398;50.928;7.084;2022-11-20T14:12:54;11.40;65.70
37560;DHT22;23398;50.928;7.084;2022-11-20T14:15:31;11.40;66.10
37560;DHT22;23398;50.928;7.084;2022-11-20T14:17:58;11.40;66.10
37560;DHT22;23398;50.928;7.084;2022-11-20T14:20:27;11.30;66.10
37560;DHT22;23398;50.928;7.084;2022-11-20T14:22:54;11.40;66.30
37560;DHT22;23398;50.928;7.084;2022-11-20T14:25:22;11.30;66.30
37560;DHT22;23398;50.928;7.084;2022-11-20T14:27:53;11.30;66.30
37560;DHT22;23398;50.928;7.084;2022-11-20T14:30:25;11.30;66.30
37560;DHT22;23398;50.928;7.084;2022-11-20T14:32:54;11.30;67.20
37560;DHT22;23398;50.928;7.084;2022-11-20T14:35:26;11.20;66.50
37560;DHT22;23398;50.928;7.084;2022-11-20T14:37:52;11.20;66.60
37560;DHT22;23398;50.928;7.084;2022-11-20T14:42:47;11.10;66.80
37560;DHT22;23398;50.928;7.084;2022-11-20T14:45:13;11.10;67.10
37560;DHT22;23398;50.928;7.084;2022-11-20T14:47:40;11.10;67.10
37560;DHT22;23398;50.928;7.084;2022-11-20T14:50:22;11.00;67.20
37560;DHT22;23398;50.928;7.084;2022-11-20T14:52:59;11.00;67.30
37560;DHT22;23398;50.928;7.084;2022-11-20T14:57:56;11.00;67.70
37560;DHT22;23398;50.928;7.084;2022-11-20T15:00:22;10.90;67.70
37560;DHT22;23398;50.928;7.084;2022-11-20T15:02:50;10.90;67.90
37560;DHT22;23398;50.928;7.084;2022-11-20T15:05:18;10.90;67.90
37560;DHT22;23398;50.928;7.084;2022-11-20T15:07:46;10.90;68.10
37560;DHT22;23398;50.928;7.084;2022-11-20T15:10:25;10.90;68.20
37560;DHT22;23398;50.928;7.084;2022-11-20T15:12:54;10.90;68.30
37560;DHT22;23398;50.928;7.084;2022-11-20T15:15:36;10.80;68.30
37560;DHT22;23398;50.928;7.084;2022-11-20T15:18:09;10.80;68.50
37560;DHT22;23398;50.928;7.084;2022-11-20T15:20:36;10.80;68.80
37560;DHT22;23398;50.928;7.084;2022-11-20T15:23:07;10.80;69.30
37560;DHT22;23398;50.928;7.084;2022-11-20T15:25:34;10.80;69.50
37560;DHT22;23398;50.928;7.084;2022-11-20T15:27:59;10.60;69.60
37560;DHT22;23398;50.928;7.084;2022-11-20T15:30:25;10.70;70.30
37560;DHT22;23398;50.928;7.084;2022-11-20T15:32:51;10.70;70.80
37560;DHT22;23398;50.928;7.084;2022-11-20T15:35:16;10.80;71.60
37560;DHT22;23398;50.928;7.084;2022-11-20T15:37:42;10.70;72.20
37560;DHT22;23398;50.928;7.084;2022-11-20T15:40:08;10.60;72.60
37560;DHT22;23398;50.928;7.084;2022-11-20T15:42:34;10.60;73.10
37560;DHT22;23398;50.928;7.084;2022-11-20T15:45:01;10.60;73.30
37560;DHT22;23398;50.928;7.084;2022-11-20T15:47:34;10.50;73.60
37560;DHT22;23398;50.928;7.084;2022-11-20T15:50:00;10.50;74.40
37560;DHT22;23398;50.928;7.084;2022-11-20T15:52:26;10.40;74.70
37560;DHT22;23398;50.928;7.084;2022-11-20T15:54:51;10.40;75.30
37560;DHT22;23398;50.928;7.084;2022-11-20T15:57:17;10.30;75.70
37560;DHT22;23398;50.928;7.084;2022-11-20T15:59:43;10.30;76.50
37560;DHT22;23398;50.928;7.084;2022-11-20T16:02:12;10.30;77.20
37560;DHT22;23398;50.928;7.084;2022-11-20T16:04:38;10.30;78.00
37560;DHT22;23398;50.928;7.084;2022-11-20T16:07:03;10.20;78.50
37560;DHT22;23398;50.928;7.084;2022-11-20T16:09:29;10.20;79.30
37560;DHT22;23398;50.928;7.084;2022-11-20T16:11:55;10.70;80.80
37560;DHT22;23398;50.928;7.084;2022-11-20T16:14:21;10.20;81.30
37560;DHT22;23398;50.928;7.084;2022-11-20T16:17:05;10.10;82.20
37560;DHT22;23398;50.928;7.084;2022-11-20T16:19:30;10.10;82.80
37560;DHT22;23398;50.928;7.084;2022-11-20T16:21:57;10.10;83.50
37560;DHT22;23398;50.928;7.084;2022-11-20T16:24:24;10.10;84.70
37560;DHT22;23398;50.928;7.084;2022-11-20T16:26:50;10.00;85.40
37560;DHT22;23398;50.928;7.084;2022-11-20T16:29:15;10.00;86.50
37560;DHT22;23398;50.928;7.084;2022-11-20T16:31:41;10.00;87.50
37560;DHT22;23398;50.928;7.084;2022-11-20T16:34:07;10.00;88.30
37560;DHT22;23398;50.928;7.084;2022-11-20T16:36:33;10.00;89.10
37560;DHT22;23398;50.928;7.084;2022-11-20T16:39:01;10.00;89.50
37560;DHT22;23398;50.928;7.084;2022-11-20T16:41:29;10.00;90.00
37560;DHT22;23398;50.928;7.084;2022-11-20T16:43:57;10.00;90.30
37560;DHT22;23398;50.928;7.084;2022-11-20T16:46:25;10.00;90.50
37560;DHT22;23398;50.928;7.084;2022-11-20T16:48:56;10.00;90.60
37560;DHT22;23398;50.928;7.084;2022-11-20T16:51:22;10.00;91.00
37560;DHT22;23398;50.928;7.084;2022-11-20T16:53:48;10.00;91.00
37560;DHT22;23398;50.928;7.084;2022-11-20T16:56:17;10.00;91.20
37560;DHT22;23398;50.928;7.084;2022-11-20T16:58:44;10.00;91.30
37560;DHT22;23398;50.928;7.084;2022-11-20T17:01:12;10.00;91.50
37560;DHT22;23398;50.928;7.084;2022-11-20T17:03:39;10.00;91.70
37560;DHT22;23398;50.928;7.084;2022-11-20T17:08:41;10.00;92.20
37560;DHT22;23398;50.928;7.084;2022-11-20T17:11:08;9.90;92.50
37560;DHT22;23398;50.928;7.084;2022-11-20T17:13:35;10.00;92.10
37560;DHT22;23398;50.928;7.084;2022-11-20T17:16:07;10.00;92.20
37560;DHT22;23398;50.928;7.084;2022-11-20T17:18:33;10.00;92.50